createdAt,value
2022-08-20T00:00:44.126Z,61.63
2022-08-20T00:03:17.439Z,61.79
2022-08-20T00:05:56.803Z,61.52
2022-08-20T00:08:23.980Z,61.57
2022-08-20T00:10:55.582Z,61.55
2022-08-20T00:13:34.547Z,62.22
2022-08-20T00:16:02.791Z,61.47
2022-08-20T00:18:29.813Z,61.70
2022-08-20T00:20:57.204Z,62.28
2022-08-20T00:23:24.697Z,61.84
2022-08-20T00:25:52.119Z,62.13
2022-08-20T00:28:19.476Z,62.36
2022-08-20T00:30:46.950Z,62.73
2022-08-20T00:33:18.083Z,62.41
2022-08-20T00:35:48.489Z,62.41
2022-08-20T00:38:15.530Z,62.23
2022-08-20T00:40:49.784Z,62.35
2022-08-20T00:43:39.271Z,62.04
2022-08-20T00:46:16.086Z,61.73
2022-08-20T00:48:45.325Z,62.01
2022-08-20T00:51:35.630Z,62.49
2022-08-20T00:54:16.068Z,62.55
2022-08-20T00:56:46.477Z,62.22
2022-08-20T00:59:21.165Z,61.93
2022-08-20T01:01:55.669Z,62.41
2022-08-20T01:04:26.220Z,62.29
2022-08-20T01:06:53.448Z,62.15
2022-08-20T01:09:33.398Z,62.33
2022-08-20T01:12:10.103Z,63.41
2022-08-20T01:14:45.466Z,63.88
2022-08-20T01:17:17.642Z,63.89
2022-08-20T01:19:58.131Z,63.58
2022-08-20T01:22:54.192Z,64.22
2022-08-20T01:25:29.483Z,64.25
2022-08-20T01:27:57.325Z,64.22
2022-08-20T01:30:28.820Z,64.20
2022-08-20T01:32:56.010Z,64.04
2022-08-20T01:35:23.900Z,63.81
2022-08-20T01:37:50.800Z,63.78
2022-08-20T01:40:32.621Z,64.11
2022-08-20T01:42:59.809Z,63.85
2022-08-20T01:45:28.159Z,64.03
2022-08-20T01:47:57.502Z,63.46
2022-08-20T01:50:27.774Z,63.30
2022-08-20T01:53:14.800Z,62.91
2022-08-20T01:55:41.628Z,62.80
2022-08-20T01:58:08.255Z,63.34
2022-08-20T02:00:35.871Z,63.17
2022-08-20T02:03:06.731Z,62.72
2022-08-20T02:05:34.244Z,63.20
2022-08-20T02:08:02.256Z,62.67
2022-08-20T02:10:31.621Z,62.73
2022-08-20T02:13:00.327Z,62.46
2022-08-20T02:15:35.213Z,63.04
2022-08-20T02:18:10.928Z,63.22
2022-08-20T02:20:39.583Z,62.73
2022-08-20T02:23:07.850Z,63.20
2022-08-20T02:25:37.682Z,62.64
2022-08-20T02:28:08.059Z,63.10
2022-08-20T02:30:39.134Z,62.61
2022-08-20T02:33:10.884Z,62.43
2022-08-20T02:35:39.149Z,62.27
2022-08-20T02:38:06.143Z,61.83
2022-08-20T02:40:33.143Z,61.89
2022-08-20T02:43:01.961Z,61.79
2022-08-20T02:45:30.647Z,61.74
2022-08-20T02:47:58.841Z,61.80
2022-08-20T02:50:26.941Z,61.99
2022-08-20T02:52:54.150Z,61.75
2022-08-20T02:55:27.547Z,61.56
2022-08-20T02:58:00.059Z,61.49
2022-08-20T03:00:30.532Z,61.39
2022-08-20T03:03:05.612Z,61.39
2022-08-20T03:05:32.196Z,61.83
2022-08-20T03:07:58.785Z,61.50
2022-08-20T03:10:32.161Z,61.56
2022-08-20T03:13:00.995Z,61.41
2022-08-20T03:15:28.874Z,61.28
2022-08-20T03:17:55.960Z,61.45
2022-08-20T03:20:24.550Z,61.36
2022-08-20T03:22:51.908Z,61.52
2022-08-20T03:25:18.918Z,61.49
2022-08-20T03:27:47.068Z,61.72
2022-08-20T03:30:20.034Z,61.81
2022-08-20T03:32:47.117Z,61.71
2022-08-20T03:35:15.950Z,62.49
2022-08-20T03:37:43.608Z,61.78
2022-08-20T03:40:19.101Z,57.76
2022-08-20T03:42:45.792Z,59.77
2022-08-20T03:45:16.035Z,60.89
2022-08-20T03:47:46.539Z,60.82
2022-08-20T03:50:14.744Z,61.28
2022-08-20T03:52:50.382Z,61.02
2022-08-20T03:55:16.963Z,61.78
2022-08-20T03:57:49.378Z,62.12
2022-08-20T04:00:20.610Z,62.29
2022-08-20T04:02:47.707Z,62.62
2022-08-20T04:05:14.389Z,62.75
2022-08-20T04:07:41.418Z,63.03
2022-08-20T04:10:10.705Z,62.35
2022-08-20T04:12:40.785Z,62.14
2022-08-20T04:15:17.551Z,62.14
2022-08-20T04:17:50.143Z,62.29
2022-08-20T04:20:23.118Z,62.74
2022-08-20T04:22:59.358Z,62.93
2022-08-20T04:25:29.623Z,63.19
2022-08-20T04:27:58.531Z,63.10
2022-08-20T04:30:26.616Z,63.47
2022-08-20T04:32:53.278Z,63.42
2022-08-20T04:35:21.224Z,63.48
2022-08-20T04:37:48.431Z,64.28
2022-08-20T04:40:36.512Z,64.69
2022-08-20T04:43:05.099Z,65.01
2022-08-20T04:45:33.237Z,65.20
2022-08-20T04:48:04.758Z,64.94
2022-08-20T04:50:36.292Z,65.15
2022-08-20T04:53:05.812Z,65.32
2022-08-20T04:55:33.903Z,65.67
2022-08-20T04:58:06.104Z,65.76
2022-08-20T05:00:33.050Z,65.77
2022-08-20T05:02:59.876Z,65.91
2022-08-20T05:05:27.608Z,66.22
2022-08-20T05:07:55.154Z,65.36
2022-08-20T05:10:23.492Z,64.67
2022-08-20T05:12:56.667Z,64.92
2022-08-20T05:15:24.783Z,64.21
2022-08-20T05:17:56.584Z,63.84
2022-08-20T05:20:23.365Z,63.79
2022-08-20T05:22:51.436Z,63.92
2022-08-20T05:25:18.155Z,63.83
2022-08-20T05:27:47.751Z,64.09
2022-08-20T05:30:14.824Z,64.39
2022-08-20T05:32:44.463Z,65.36
2022-08-20T05:35:11.884Z,64.85
2022-08-20T05:37:41.160Z,65.12
2022-08-20T05:40:11.144Z,64.72
2022-08-20T05:42:38.751Z,65.07
2022-08-20T05:45:11.266Z,65.43
2022-08-20T05:47:42.766Z,64.85
2022-08-20T05:50:11.288Z,64.84
2022-08-20T05:52:47.358Z,64.64
2022-08-20T05:55:14.044Z,64.49
2022-08-20T05:57:41.129Z,65.26
2022-08-20T06:00:11.556Z,64.96
2022-08-20T06:02:57.552Z,64.66
2022-08-20T06:05:24.762Z,64.45
2022-08-20T06:07:52.824Z,65.35
2022-08-20T06:10:21.475Z,64.45
2022-08-20T06:12:48.042Z,64.01
2022-08-20T06:15:14.688Z,63.94
2022-08-20T06:17:41.316Z,64.05
2022-08-20T06:20:09.894Z,64.03
2022-08-20T06:22:38.176Z,63.56
2022-08-20T06:25:07.472Z,63.83
2022-08-20T06:27:38.696Z,65.14
2022-08-20T06:30:06.601Z,65.31
2022-08-20T06:32:33.600Z,65.81
2022-08-20T06:35:02.183Z,65.92
2022-08-20T06:37:32.214Z,65.87
2022-08-20T06:40:18.169Z,66.49
2022-08-20T06:42:48.540Z,66.84
2022-08-20T06:45:24.914Z,67.09
2022-08-20T06:47:53.363Z,66.26
2022-08-20T06:50:23.292Z,65.77
2022-08-20T06:52:51.889Z,65.01
2022-08-20T06:55:19.423Z,65.59
2022-08-20T06:57:47.773Z,64.98
2022-08-20T07:00:19.037Z,64.66
2022-08-20T07:02:48.136Z,63.49
2022-08-20T07:05:16.290Z,62.28
2022-08-20T07:07:49.378Z,61.35
2022-08-20T07:10:19.501Z,59.92
2022-08-20T07:12:46.919Z,58.51
2022-08-20T07:15:15.008Z,57.24
2022-08-20T07:17:42.170Z,57.50
2022-08-20T07:20:15.534Z,56.66
2022-08-20T07:22:43.349Z,57.86
2022-08-20T07:25:12.556Z,57.34
2022-08-20T07:27:39.740Z,56.40
2022-08-20T07:30:28.231Z,55.54
2022-08-20T07:32:55.593Z,56.04
2022-08-20T07:35:22.196Z,55.33
2022-08-20T07:37:50.349Z,55.21
2022-08-20T07:40:25.689Z,55.10
2022-08-20T07:42:58.058Z,55.77
2022-08-20T07:45:25.548Z,56.29
2022-08-20T07:47:53.587Z,57.54
2022-08-20T07:50:23.875Z,57.58
2022-08-20T07:52:54.194Z,57.22
2022-08-20T07:55:22.031Z,56.64
2022-08-20T07:57:50.205Z,56.18
2022-08-20T08:00:20.412Z,56.04
2022-08-20T08:02:47.054Z,56.47
2022-08-20T08:05:14.459Z,55.59
2022-08-20T08:07:43.095Z,55.58
2022-08-20T08:10:14.080Z,55.80
2022-08-20T08:12:47.606Z,55.20
2022-08-20T08:15:20.241Z,55.58
2022-08-20T08:17:48.715Z,54.76
2022-08-20T08:20:16.042Z,54.91
2022-08-20T08:22:44.129Z,55.72
2022-08-20T08:25:12.919Z,57.05
2022-08-20T08:27:40.329Z,58.58
2022-08-20T08:30:08.860Z,59.55
2022-08-20T08:32:37.034Z,60.54
2022-08-20T08:35:07.476Z,60.90
2022-08-20T08:37:34.344Z,61.06
2022-08-20T08:40:01.400Z,61.10
2022-08-20T08:42:39.959Z,61.99
2022-08-20T08:45:10.685Z,63.04
2022-08-20T08:47:39.059Z,62.82
2022-08-20T08:50:09.867Z,62.81
2022-08-20T08:52:42.894Z,62.96
2022-08-20T08:55:18.656Z,63.44
2022-08-20T08:57:47.535Z,62.64
2022-08-20T09:00:18.163Z,62.65
2022-08-20T09:03:19.449Z,63.35
2022-08-20T09:05:52.205Z,62.29
2022-08-20T09:08:25.794Z,61.73
2022-08-20T09:10:52.411Z,60.88
2022-08-20T09:13:19.268Z,60.56
2022-08-20T09:15:46.243Z,60.87
2022-08-20T09:18:12.800Z,60.67
2022-08-20T09:20:39.348Z,60.46
2022-08-20T09:23:06.785Z,60.10
2022-08-20T09:25:33.668Z,59.97
2022-08-20T09:28:00.289Z,61.71
2022-08-20T09:30:26.929Z,60.88
2022-08-20T09:32:53.840Z,61.44
2022-08-20T09:35:20.481Z,61.11
2022-08-20T09:37:50.109Z,60.32
2022-08-20T09:40:20.987Z,59.45
2022-08-20T09:42:49.407Z,60.43
2022-08-20T09:45:16.035Z,59.60
2022-08-20T09:47:53.030Z,59.60
2022-08-20T09:50:28.496Z,58.78
2022-08-20T09:52:57.627Z,58.65
2022-08-20T09:55:45.107Z,59.42
2022-08-20T09:58:20.872Z,59.08
2022-08-20T10:00:47.800Z,58.67
2022-08-20T10:03:14.483Z,60.51
2022-08-20T10:05:41.136Z,59.57
2022-08-20T10:08:09.743Z,58.77
2022-08-20T10:10:36.619Z,59.40
2022-08-20T10:13:03.480Z,59.12
2022-08-20T10:15:31.085Z,60.16
2022-08-20T10:17:57.968Z,61.15
2022-08-20T10:20:25.654Z,61.16
2022-08-20T10:22:52.233Z,61.27
2022-08-20T10:25:19.524Z,60.44
2022-08-20T10:27:46.081Z,60.78
2022-08-20T10:30:13.096Z,59.50
2022-08-20T10:32:40.031Z,60.35
2022-08-20T10:35:06.981Z,58.66
2022-08-20T10:37:35.015Z,59.74
2022-08-20T10:40:01.868Z,60.04
2022-08-20T10:42:28.476Z,59.13
2022-08-20T10:44:55.411Z,60.40
2022-08-20T10:47:25.129Z,59.19
2022-08-20T10:49:53.457Z,57.84
2022-08-20T10:52:20.630Z,55.90
2022-08-20T10:54:47.739Z,56.21
2022-08-20T10:57:24.629Z,57.69
2022-08-20T10:59:53.147Z,55.44
2022-08-20T11:02:21.284Z,55.35
2022-08-20T11:04:49.578Z,56.13
2022-08-20T11:07:55.085Z,57.30
2022-08-20T11:10:13.998Z,56.83
2022-08-20T11:12:40.979Z,57.88
2022-08-20T11:15:10.893Z,57.29
2022-08-20T11:17:41.407Z,58.14
2022-08-20T11:20:09.300Z,58.66
2022-08-20T11:22:37.334Z,57.29
2022-08-20T11:25:05.643Z,57.26
2022-08-20T11:27:40.679Z,56.74
2022-08-20T11:30:11.715Z,56.67
2022-08-20T11:32:38.447Z,56.21
2022-08-20T11:35:24.577Z,56.65
2022-08-20T11:37:54.436Z,53.39
2022-08-20T11:40:22.948Z,52.28
2022-08-20T11:43:13.215Z,53.38
2022-08-20T11:45:37.572Z,53.79
2022-08-20T11:48:05.412Z,53.81
2022-08-20T11:50:32.404Z,54.49
2022-08-20T11:52:59.217Z,54.91
2022-08-20T11:55:29.509Z,55.40
2022-08-20T11:57:59.957Z,55.82
2022-08-20T12:00:31.969Z,55.62
2022-08-20T12:03:05.591Z,54.78
2022-08-20T12:05:36.973Z,55.79
2022-08-20T12:08:04.688Z,56.64
2022-08-20T12:10:32.275Z,56.11
2022-08-20T12:12:59.286Z,54.07
2022-08-20T12:15:27.525Z,52.93
2022-08-20T12:17:55.214Z,52.74
2022-08-20T12:20:23.041Z,51.00
2022-08-20T12:22:49.887Z,51.21
2022-08-20T12:25:16.521Z,50.96
2022-08-20T12:27:43.085Z,51.79
2022-08-20T12:30:18.075Z,50.54
2022-08-20T12:32:44.750Z,48.32
2022-08-20T12:35:12.297Z,46.71
2022-08-20T12:37:39.505Z,46.19
2022-08-20T12:40:14.169Z,44.38
2022-08-20T12:42:41.183Z,45.95
2022-08-20T12:45:08.511Z,44.54
2022-08-20T12:47:41.263Z,42.83
2022-08-20T12:50:20.994Z,43.50
2022-08-20T12:52:48.550Z,43.65
2022-08-20T12:55:18.352Z,44.33
2022-08-20T12:57:51.541Z,44.66
2022-08-20T13:00:22.725Z,45.83
2022-08-20T13:02:56.113Z,44.47
2022-08-20T13:05:23.658Z,45.56
2022-08-20T13:07:50.862Z,45.60
2022-08-20T13:10:44.091Z,47.15
2022-08-20T13:13:20.230Z,44.85
2022-08-20T13:15:48.770Z,46.05
2022-08-20T13:18:15.436Z,44.60
2022-08-20T13:20:44.885Z,44.98
2022-08-20T13:23:11.545Z,45.03
2022-08-20T13:25:38.094Z,45.01
2022-08-20T13:28:05.029Z,43.77
2022-08-20T13:30:35.066Z,43.16
2022-08-20T13:33:01.665Z,44.20
2022-08-20T13:35:28.344Z,44.20
2022-08-20T13:37:54.951Z,43.02
2022-08-20T13:40:21.681Z,41.72
2022-08-20T13:42:48.395Z,42.39
2022-08-20T13:45:15.472Z,42.32
2022-08-20T13:47:42.988Z,41.59
2022-08-20T13:50:15.244Z,43.11
2022-08-20T13:52:43.178Z,41.49
2022-08-20T13:55:11.562Z,41.80
2022-08-20T13:57:39.212Z,41.83
2022-08-20T14:00:10.373Z,41.69
2022-08-20T14:02:37.582Z,42.85
2022-08-20T14:05:04.391Z,42.97
2022-08-20T14:07:32.711Z,42.48
2022-08-20T14:10:03.213Z,41.14
2022-08-20T14:12:30.675Z,40.85
2022-08-20T14:14:57.968Z,41.04
2022-08-20T14:17:30.842Z,40.47
2022-08-20T14:20:01.646Z,40.80
2022-08-20T14:22:29.807Z,40.53
2022-08-20T14:24:56.665Z,41.90
2022-08-20T14:27:27.816Z,40.51
2022-08-20T14:29:58.062Z,40.23
2022-08-20T14:32:24.700Z,40.59
2022-08-20T14:34:51.463Z,40.92
2022-08-20T14:37:22.512Z,40.18
2022-08-20T14:39:51.994Z,40.39
2022-08-20T14:42:19.000Z,41.32
2022-08-20T14:44:45.736Z,42.22
2022-08-20T14:47:24.954Z,42.73
2022-08-20T14:49:54.111Z,43.02
2022-08-20T14:52:22.490Z,42.57
2022-08-20T14:54:51.028Z,43.00
2022-08-20T14:57:19.754Z,42.99
2022-08-20T14:59:47.538Z,43.21
2022-08-20T15:02:15.814Z,43.28
2022-08-20T15:04:43.647Z,42.82
2022-08-20T15:07:27.033Z,43.26
2022-08-20T15:09:54.658Z,42.69
2022-08-20T15:12:21.914Z,43.10
2022-08-20T15:14:49.058Z,44.79
2022-08-20T15:17:21.284Z,44.33
2022-08-20T15:19:48.866Z,44.60
2022-08-20T15:22:15.969Z,44.71
2022-08-20T15:24:42.676Z,44.21
2022-08-20T15:27:13.344Z,44.56
2022-08-20T15:29:40.511Z,44.13
2022-08-20T15:32:08.466Z,45.83
2022-08-20T15:34:40.056Z,44.28
2022-08-20T15:37:25.543Z,44.33
2022-08-20T15:39:52.834Z,44.40
2022-08-20T15:42:20.827Z,44.98
2022-08-20T15:44:48.086Z,44.15
2022-08-20T15:47:26.860Z,44.62
2022-08-20T15:50:02.442Z,44.69
2022-08-20T15:52:41.845Z,43.49
2022-08-20T15:55:13.942Z,43.15
2022-08-20T15:58:28.692Z,43.05
2022-08-20T16:01:31.646Z,43.40
2022-08-20T16:04:27.970Z,44.22
2022-08-20T16:07:00.736Z,43.56
2022-08-20T16:09:45.796Z,43.01
2022-08-20T16:12:21.488Z,43.00
2022-08-20T16:14:56.903Z,42.87
2022-08-20T16:17:39.091Z,44.00
2022-08-20T16:20:22.127Z,42.64
2022-08-20T16:22:49.348Z,43.24
2022-08-20T16:25:22.648Z,43.91
2022-08-20T16:28:23.922Z,43.12
2022-08-20T16:30:59.028Z,42.52
2022-08-20T16:33:46.472Z,43.66
2022-08-20T16:37:03.160Z,42.70
2022-08-20T16:39:54.373Z,44.26
2022-08-20T16:42:24.443Z,44.03
2022-08-20T16:44:54.058Z,44.01
2022-08-20T16:47:29.391Z,43.65
2022-08-20T16:50:06.757Z,43.75
2022-08-20T16:52:33.619Z,44.57
2022-08-20T16:55:00.223Z,44.29
2022-08-20T16:57:28.238Z,44.21
2022-08-20T17:00:05.112Z,44.50
2022-08-20T17:02:31.928Z,44.63
2022-08-20T17:05:01.400Z,45.07
2022-08-20T17:07:44.889Z,44.86
2022-08-20T17:10:20.899Z,45.42
2022-08-20T17:13:20.950Z,45.21
2022-08-20T17:16:00.054Z,45.85
2022-08-20T17:18:33.672Z,46.69
2022-08-20T17:21:25.944Z,46.84
2022-08-20T17:24:06.438Z,46.76
2022-08-20T17:27:10.540Z,47.26
2022-08-20T17:29:49.796Z,47.30
2022-08-20T17:32:21.290Z,48.51
2022-08-20T17:34:50.804Z,49.00
2022-08-20T17:37:25.206Z,48.76
2022-08-20T17:39:56.236Z,49.31
2022-08-20T17:42:26.097Z,49.60
2022-08-20T17:45:12.760Z,48.69
2022-08-20T17:47:41.234Z,49.47
2022-08-20T17:50:21.032Z,49.90
2022-08-20T17:52:55.930Z,49.82
2022-08-20T17:55:23.506Z,49.27
2022-08-20T17:58:00.647Z,49.33
2022-08-20T18:00:28.597Z,49.24
2022-08-20T18:03:00.655Z,49.01
2022-08-20T18:05:31.228Z,49.49
2022-08-20T18:08:30.666Z,49.68
2022-08-20T18:11:13.765Z,49.54
2022-08-20T18:14:04.568Z,49.62
2022-08-20T18:17:00.757Z,49.90
2022-08-20T18:19:54.704Z,49.78
2022-08-20T18:22:28.709Z,49.62
2022-08-20T18:25:36.543Z,50.12
2022-08-20T18:28:12.701Z,50.21
2022-08-20T18:31:08.785Z,49.90
2022-08-20T18:33:39.142Z,49.70
2022-08-20T18:36:24.440Z,49.96
2022-08-20T18:39:11.529Z,50.75
2022-08-20T18:41:40.511Z,50.90
2022-08-20T18:44:12.122Z,50.04
2022-08-20T18:46:53.686Z,50.20
2022-08-20T18:49:47.270Z,50.66
2022-08-20T18:52:26.175Z,50.52
2022-08-20T18:54:56.383Z,51.04
2022-08-20T18:57:40.577Z,51.20
2022-08-20T19:00:17.705Z,50.81
2022-08-20T19:02:56.720Z,50.98
2022-08-20T19:05:31.812Z,50.92
2022-08-20T19:08:02.404Z,51.21
2022-08-20T19:10:37.743Z,51.69
2022-08-20T19:13:16.372Z,51.92
2022-08-20T19:15:47.204Z,51.11
2022-08-20T19:18:37.755Z,51.93
2022-08-20T19:21:04.801Z,51.93
2022-08-20T19:23:49.015Z,52.13
2022-08-20T19:26:25.655Z,51.57
2022-08-20T19:28:57.312Z,52.23
2022-08-20T19:31:27.108Z,52.37
2022-08-20T19:34:22.844Z,51.97
2022-08-20T19:36:55.542Z,51.96
2022-08-20T19:39:25.777Z,51.99
2022-08-20T19:42:00.816Z,52.12
2022-08-20T19:44:41.515Z,52.43
2022-08-20T19:47:20.686Z,52.86
2022-08-20T19:50:15.367Z,52.57
2022-08-20T19:52:55.366Z,53.18
2022-08-20T19:55:27.784Z,53.94
2022-08-20T19:57:58.144Z,53.18
2022-08-20T20:00:28.583Z,53.02
2022-08-20T20:02:56.320Z,53.37
2022-08-20T20:05:23.351Z,53.60
2022-08-20T20:07:56.983Z,53.19
2022-08-20T20:10:36.274Z,53.52
2022-08-20T20:13:09.105Z,54.19
2022-08-20T20:15:38.419Z,53.95
2022-08-20T20:18:06.647Z,54.29
2022-08-20T20:20:37.886Z,54.50
2022-08-20T20:23:38.539Z,54.26
2022-08-20T20:26:17.300Z,54.32
2022-08-20T20:28:48.715Z,54.80
2022-08-20T20:31:28.356Z,54.98
2022-08-20T20:34:09.551Z,54.66
2022-08-20T20:36:41.195Z,54.39
2022-08-20T20:39:24.285Z,54.48
2022-08-20T20:41:53.315Z,54.86
2022-08-20T20:44:24.256Z,55.09
2022-08-20T20:46:57.333Z,54.99
2022-08-20T20:49:30.626Z,54.70
2022-08-20T20:52:17.242Z,54.28
2022-08-20T20:54:45.751Z,54.06
2022-08-20T20:57:15.659Z,54.49
2022-08-20T20:59:42.463Z,54.21
2022-08-20T21:02:09.465Z,54.79
2022-08-20T21:04:38.534Z,54.95
2022-08-20T21:07:10.600Z,55.17
2022-08-20T21:09:38.851Z,54.73
2022-08-20T21:12:06.506Z,55.38
2022-08-20T21:14:34.221Z,55.53
2022-08-20T21:17:03.479Z,56.34
2022-08-20T21:19:30.327Z,55.32
2022-08-20T21:21:57.052Z,55.40
2022-08-20T21:24:24.028Z,55.17
2022-08-20T21:26:51.758Z,55.03
2022-08-20T21:29:29.250Z,55.36
2022-08-20T21:31:59.390Z,55.20
2022-08-20T21:34:26.618Z,55.13
2022-08-20T21:36:53.408Z,55.31
2022-08-20T21:39:21.302Z,54.84
2022-08-20T21:41:48.266Z,55.22
2022-08-20T21:44:25.806Z,55.07
2022-08-20T21:46:53.702Z,55.33
2022-08-20T21:49:21.260Z,55.66
2022-08-20T21:51:49.228Z,55.46
2022-08-20T21:54:17.151Z,55.87
2022-08-20T21:56:48.290Z,55.89
2022-08-20T21:59:16.399Z,55.97
2022-08-20T22:01:43.329Z,56.32
2022-08-20T22:04:10.166Z,56.41
2022-08-20T22:06:37.217Z,56.42
2022-08-20T22:09:04.416Z,57.35
2022-08-20T22:11:31.264Z,57.43
2022-08-20T22:13:57.815Z,57.83
2022-08-20T22:16:24.627Z,57.98
2022-08-20T22:18:51.678Z,58.66
2022-08-20T22:21:24.908Z,58.87
2022-08-20T22:23:52.084Z,58.67
2022-08-20T22:26:20.232Z,58.48
2022-08-20T22:28:50.928Z,58.74
2022-08-20T22:31:20.728Z,59.16
2022-08-20T22:33:47.467Z,59.25
2022-08-20T22:36:14.247Z,59.53
2022-08-20T22:38:41.154Z,61.89
2022-08-20T22:41:09.913Z,61.31
2022-08-20T22:43:36.799Z,60.80
2022-08-20T22:46:15.062Z,60.54
2022-08-20T22:48:42.915Z,60.73
2022-08-20T22:51:14.408Z,61.59
2022-08-20T22:53:45.361Z,61.47
2022-08-20T22:56:19.665Z,61.01
2022-08-20T22:58:46.634Z,61.15
2022-08-20T23:01:17.724Z,61.26
2022-08-20T23:03:44.715Z,61.69
2022-08-20T23:06:12.630Z,61.64
2022-08-20T23:08:40.335Z,61.47
2022-08-20T23:11:07.141Z,61.83
2022-08-20T23:13:34.248Z,61.82
2022-08-20T23:16:01.124Z,62.37
2022-08-20T23:18:27.718Z,61.99
2022-08-20T23:20:57.037Z,61.98
2022-08-20T23:23:25.983Z,63.20
2022-08-20T23:25:53.661Z,63.39
2022-08-20T23:28:22.829Z,63.43
2022-08-20T23:30:49.556Z,63.41
2022-08-20T23:33:17.169Z,63.99
2022-08-20T23:35:45.084Z,63.24
2022-08-20T23:38:12.399Z,63.51
2022-08-20T23:40:39.930Z,63.59
2022-08-20T23:43:06.778Z,63.17
2022-08-20T23:45:34.387Z,62.93
2022-08-20T23:48:06.477Z,63.83
2022-08-20T23:50:33.526Z,64.24
2022-08-20T23:53:00.092Z,63.70
2022-08-20T23:55:26.660Z,64.22
2022-08-20T23:57:53.445Z,64.37
